Terminal Aerodrome Forecast
Issued by NWS Springfield, MO

Home | Current Version | Previous Version | Text Only | Print | Product List | Glossary On
Versions: 1 2 3 4 5 6 7 8 9 10 11 12 13 14 15 16 17 18 19 20 21 22 23 24 25
000
FTUS43 KSGF 201720
TAFSGF
TAF
KSGF 201720Z 2018/2118 26010KT P6SM OVC010
     FM202000 30009KT P6SM VCSH OVC025
     FM202100 31009KT P6SM VCSH OVC045
     FM202300 34008KT P6SM VCSH OVC070
     FM210000 35008KT P6SM OVC080
     FM210300 02006KT P6SM BKN080
     FM210600 04007KT P6SM SHRA VCTS OVC070CB
     FM210800 04008KT P6SM SHRA VCTS OVC060CB
     FM211300 06008KT 4SM SHRA VCTS OVC008CB=

USA.gov is the U.S. government's official web portal to all federal, state and local government web resources and services.